sensor_id;sensor_type;location;lat;lon;timestamp;P1;durP1;ratioP1;P2;durP2;ratioP2
49900;SDS011;35789;48.414;12.768;2023-10-19T00:00:00;21.1;;;14.8;;
49900;SDS011;35789;48.414;12.768;2023-10-19T00:05:00;21.1;;;14.8;;
49900;SDS011;35789;48.414;12.768;2023-10-19T00:10:00;21.1;;;14.8;;
49900;SDS011;35789;48.414;12.768;2023-10-19T00:15:00;21.1;;;14.8;;
49900;SDS011;35789;48.414;12.768;2023-10-19T00:20:00;21.1;;;15.2;;
49900;SDS011;35789;48.414;12.768;2023-10-19T00:25:00;21.1;;;15.2;;
49900;SDS011;35789;48.414;12.768;2023-10-19T00:30:00;21.1;;;15.2;;
49900;SDS011;35789;48.414;12.768;2023-10-19T00:35:00;21.1;;;15.2;;
49900;SDS011;35789;48.414;12.768;2023-10-19T00:40:00;21.1;;;15.2;;
49900;SDS011;35789;48.414;12.768;2023-10-19T00:45:00;21.1;;;15.2;;
49900;SDS011;35789;48.414;12.768;2023-10-19T00:50:00;21.5;;;15.2;;
49900;SDS011;35789;48.414;12.768;2023-10-19T00:55:00;21.5;;;15.2;;
49900;SDS011;35789;48.414;12.768;2023-10-19T01:00:01;21.5;;;15.2;;
49900;SDS011;35789;48.414;12.768;2023-10-19T01:05:00;21.5;;;15.2;;
49900;SDS011;35789;48.414;12.768;2023-10-19T01:10:01;21.5;;;15.2;;
49900;SDS011;35789;48.414;12.768;2023-10-19T01:15:02;21.5;;;15.2;;
49900;SDS011;35789;48.414;12.768;2023-10-19T01:20:00;21.5;;;15.8;;
49900;SDS011;35789;48.414;12.768;2023-10-19T01:25:02;21.5;;;15.8;;
49900;SDS011;35789;48.414;12.768;2023-10-19T01:30:00;21.5;;;15.8;;
49900;SDS011;35789;48.414;12.768;2023-10-19T01:35:00;21.5;;;15.8;;
49900;SDS011;35789;48.414;12.768;2023-10-19T01:40:00;21.5;;;15.8;;
49900;SDS011;35789;48.414;12.768;2023-10-19T01:45:00;21.5;;;15.8;;
49900;SDS011;35789;48.414;12.768;2023-10-19T01:50:00;22.8;;;15.8;;
49900;SDS011;35789;48.414;12.768;2023-10-19T01:55:00;22.8;;;15.8;;
49900;SDS011;35789;48.414;12.768;2023-10-19T02:00:00;22.8;;;15.8;;
49900;SDS011;35789;48.414;12.768;2023-10-19T02:05:00;22.8;;;15.8;;
49900;SDS011;35789;48.414;12.768;2023-10-19T02:10:00;22.8;;;15.8;;
49900;SDS011;35789;48.414;12.768;2023-10-19T02:15:00;22.8;;;15.8;;
49900;SDS011;35789;48.414;12.768;2023-10-19T02:20:00;23.9;;;16.2;;
49900;SDS011;35789;48.414;12.768;2023-10-19T02:25:00;23.9;;;16.2;;
49900;SDS011;35789;48.414;12.768;2023-10-19T02:30:00;23.9;;;16.2;;
49900;SDS011;35789;48.414;12.768;2023-10-19T02:35:00;23.9;;;16.2;;
49900;SDS011;35789;48.414;12.768;2023-10-19T02:40:00;23.9;;;16.2;;
49900;SDS011;35789;48.414;12.768;2023-10-19T02:45:00;23.9;;;16.2;;
49900;SDS011;35789;48.414;12.768;2023-10-19T02:50:00;25.2;;;16.8;;
49900;SDS011;35789;48.414;12.768;2023-10-19T02:55:00;25.2;;;16.8;;
49900;SDS011;35789;48.414;12.768;2023-10-19T03:00:00;25.2;;;16.8;;
49900;SDS011;35789;48.414;12.768;2023-10-19T03:05:00;25.2;;;16.8;;
49900;SDS011;35789;48.414;12.768;2023-10-19T03:10:00;25.2;;;16.8;;
49900;SDS011;35789;48.414;12.768;2023-10-19T03:15:00;25.2;;;16.8;;
49900;SDS011;35789;48.414;12.768;2023-10-19T03:20:00;23.9;;;16.6;;
49900;SDS011;35789;48.414;12.768;2023-10-19T03:25:00;23.9;;;16.6;;
49900;SDS011;35789;48.414;12.768;2023-10-19T03:30:00;23.9;;;16.6;;
49900;SDS011;35789;48.414;12.768;2023-10-19T03:35:01;23.9;;;16.6;;
49900;SDS011;35789;48.414;12.768;2023-10-19T03:40:01;23.9;;;16.6;;
49900;SDS011;35789;48.414;12.768;2023-10-19T03:45:00;23.9;;;16.6;;
49900;SDS011;35789;48.414;12.768;2023-10-19T03:50:00;24.9;;;17.7;;
49900;SDS011;35789;48.414;12.768;2023-10-19T03:55:00;24.9;;;17.7;;
49900;SDS011;35789;48.414;12.768;2023-10-19T04:00:00;24.9;;;17.7;;
49900;SDS011;35789;48.414;12.768;2023-10-19T04:05:00;24.9;;;17.7;;
49900;SDS011;35789;48.414;12.768;2023-10-19T04:10:00;24.9;;;17.7;;
49900;SDS011;35789;48.414;12.768;2023-10-19T04:15:02;24.9;;;17.7;;
49900;SDS011;35789;48.414;12.768;2023-10-19T04:20:00;26.9;;;19.1;;
49900;SDS011;35789;48.414;12.768;2023-10-19T04:25:00;26.9;;;19.1;;
49900;SDS011;35789;48.414;12.768;2023-10-19T04:30:00;26.9;;;19.1;;
49900;SDS011;35789;48.414;12.768;2023-10-19T04:35:00;26.9;;;19.1;;
49900;SDS011;35789;48.414;12.768;2023-10-19T04:40:00;26.9;;;19.1;;
49900;SDS011;35789;48.414;12.768;2023-10-19T04:45:00;26.9;;;19.1;;
49900;SDS011;35789;48.414;12.768;2023-10-19T04:50:00;26.0;;;17.8;;
49900;SDS011;35789;48.414;12.768;2023-10-19T04:55:00;26.0;;;17.8;;
49900;SDS011;35789;48.414;12.768;2023-10-19T05:00:00;26.0;;;17.8;;
49900;SDS011;35789;48.414;12.768;2023-10-19T05:05:00;26.0;;;17.8;;
49900;SDS011;35789;48.414;12.768;2023-10-19T05:10:00;26.0;;;17.8;;
49900;SDS011;35789;48.414;12.768;2023-10-19T05:15:00;31.9;;;20.9;;
49900;SDS011;35789;48.414;12.768;2023-10-19T05:20:00;31.9;;;20.9;;
49900;SDS011;35789;48.414;12.768;2023-10-19T05:25:00;31.9;;;20.9;;
49900;SDS011;35789;48.414;12.768;2023-10-19T05:30:00;31.9;;;20.9;;
49900;SDS011;35789;48.414;12.768;2023-10-19T05:35:00;31.9;;;20.9;;
49900;SDS011;35789;48.414;12.768;2023-10-19T05:40:00;31.9;;;20.9;;
49900;SDS011;35789;48.414;12.768;2023-10-19T05:45:00;31.6;;;21.5;;
49900;SDS011;35789;48.414;12.768;2023-10-19T05:50:00;31.6;;;21.5;;
49900;SDS011;35789;48.414;12.768;2023-10-19T05:55:00;31.6;;;21.5;;
49900;SDS011;35789;48.414;12.768;2023-10-19T06:00:00;31.6;;;21.5;;
49900;SDS011;35789;48.414;12.768;2023-10-19T06:05:00;31.6;;;21.5;;
49900;SDS011;35789;48.414;12.768;2023-10-19T06:10:00;31.6;;;21.5;;
49900;SDS011;35789;48.414;12.768;2023-10-19T06:15:00;29.0;;;19.1;;
49900;SDS011;35789;48.414;12.768;2023-10-19T06:25:00;29.0;;;19.1;;
49900;SDS011;35789;48.414;12.768;2023-10-19T06:30:00;29.0;;;19.1;;
49900;SDS011;35789;48.414;12.768;2023-10-19T06:35:00;29.0;;;19.1;;
49900;SDS011;35789;48.414;12.768;2023-10-19T06:40:00;29.0;;;19.1;;
49900;SDS011;35789;48.414;12.768;2023-10-19T06:45:00;30.2;;;21.4;;
49900;SDS011;35789;48.414;12.768;2023-10-19T06:50:00;30.2;;;21.4;;
49900;SDS011;35789;48.414;12.768;2023-10-19T06:55:00;30.2;;;21.4;;
49900;SDS011;35789;48.414;12.768;2023-10-19T07:00:00;30.2;;;21.4;;
49900;SDS011;35789;48.414;12.768;2023-10-19T07:05:00;30.2;;;21.4;;
49900;SDS011;35789;48.414;12.768;2023-10-19T07:10:00;30.2;;;21.4;;
49900;SDS011;35789;48.414;12.768;2023-10-19T07:15:00;30.0;;;20.1;;
49900;SDS011;35789;48.414;12.768;2023-10-19T07:20:00;30.0;;;20.1;;
49900;SDS011;35789;48.414;12.768;2023-10-19T07:25:00;30.0;;;20.1;;
49900;SDS011;35789;48.414;12.768;2023-10-19T07:30:00;30.0;;;20.1;;
49900;SDS011;35789;48.414;12.768;2023-10-19T07:35:00;30.0;;;20.1;;
49900;SDS011;35789;48.414;12.768;2023-10-19T07:40:00;30.0;;;20.1;;
49900;SDS011;35789;48.414;12.768;2023-10-19T07:45:00;33.3;;;22.4;;
49900;SDS011;35789;48.414;12.768;2023-10-19T07:50:00;33.3;;;22.4;;
49900;SDS011;35789;48.414;12.768;2023-10-19T07:55:00;33.3;;;22.4;;
49900;SDS011;35789;48.414;12.768;2023-10-19T08:00:00;33.3;;;22.4;;
49900;SDS011;35789;48.414;12.768;2023-10-19T08:05:00;33.3;;;22.4;;
49900;SDS011;35789;48.414;12.768;2023-10-19T08:10:00;33.3;;;22.4;;
49900;SDS011;35789;48.414;12.768;2023-10-19T08:15:00;28.9;;;21.5;;
49900;SDS011;35789;48.414;12.768;2023-10-19T08:20:00;28.9;;;21.5;;
49900;SDS011;35789;48.414;12.768;2023-10-19T08:25:00;28.9;;;21.5;;
49900;SDS011;35789;48.414;12.768;2023-10-19T08:30:00;28.9;;;21.5;;
49900;SDS011;35789;48.414;12.768;2023-10-19T08:35:00;28.9;;;21.5;;
49900;SDS011;35789;48.414;12.768;2023-10-19T08:40:00;28.9;;;21.5;;
49900;SDS011;35789;48.414;12.768;2023-10-19T08:45:00;25.9;;;19.6;;
49900;SDS011;35789;48.414;12.768;2023-10-19T08:50:00;25.9;;;19.6;;
49900;SDS011;35789;48.414;12.768;2023-10-19T08:55:00;25.9;;;19.6;;
49900;SDS011;35789;48.414;12.768;2023-10-19T09:00:00;25.9;;;19.6;;
49900;SDS011;35789;48.414;12.768;2023-10-19T09:05:05;25.9;;;19.6;;
49900;SDS011;35789;48.414;12.768;2023-10-19T09:10:00;25.9;;;19.6;;
49900;SDS011;35789;48.414;12.768;2023-10-19T09:15:00;29.5;;;19.9;;
49900;SDS011;35789;48.414;12.768;2023-10-19T09:20:00;29.5;;;19.9;;
49900;SDS011;35789;48.414;12.768;2023-10-19T09:25:00;29.5;;;19.9;;
49900;SDS011;35789;48.414;12.768;2023-10-19T09:30:02;29.5;;;19.9;;
49900;SDS011;35789;48.414;12.768;2023-10-19T09:35:00;29.5;;;19.9;;
49900;SDS011;35789;48.414;12.768;2023-10-19T09:40:00;29.5;;;19.9;;
49900;SDS011;35789;48.414;12.768;2023-10-19T09:45:04;24.6;;;17.6;;
49900;SDS011;35789;48.414;12.768;2023-10-19T09:50:00;24.6;;;17.6;;
49900;SDS011;35789;48.414;12.768;2023-10-19T09:55:06;24.6;;;17.6;;
49900;SDS011;35789;48.414;12.768;2023-10-19T10:00:03;24.6;;;17.6;;
49900;SDS011;35789;48.414;12.768;2023-10-19T10:05:00;24.6;;;17.6;;
49900;SDS011;35789;48.414;12.768;2023-10-19T10:10:00;24.6;;;17.6;;
49900;SDS011;35789;48.414;12.768;2023-10-19T10:15:02;23.5;;;18.1;;
49900;SDS011;35789;48.414;12.768;2023-10-19T10:25:00;23.5;;;18.1;;
49900;SDS011;35789;48.414;12.768;2023-10-19T10:30:04;23.5;;;18.1;;
49900;SDS011;35789;48.414;12.768;2023-10-19T10:35:00;23.5;;;18.1;;
49900;SDS011;35789;48.414;12.768;2023-10-19T10:40:00;23.5;;;18.1;;
49900;SDS011;35789;48.414;12.768;2023-10-19T10:45:00;unavailable;;;unavailable;;
49900;SDS011;35789;48.414;12.768;2023-10-19T10:50:00;unavailable;;;unavailable;;
49900;SDS011;35789;48.414;12.768;2023-10-19T10:55:06;24.6;;;18.9;;
49900;SDS011;35789;48.414;12.768;2023-10-19T11:00:02;24.6;;;18.9;;
49900;SDS011;35789;48.414;12.768;2023-10-19T11:05:00;24.6;;;18.9;;
49900;SDS011;35789;48.414;12.768;2023-10-19T11:10:00;24.6;;;18.9;;
49900;SDS011;35789;48.414;12.768;2023-10-19T11:15:00;25.3;;;19.1;;
49900;SDS011;35789;48.414;12.768;2023-10-19T11:20:00;25.3;;;19.1;;
49900;SDS011;35789;48.414;12.768;2023-10-19T11:25:17;25.3;;;19.1;;
49900;SDS011;35789;48.414;12.768;2023-10-19T11:30:00;25.3;;;19.1;;
49900;SDS011;35789;48.414;12.768;2023-10-19T11:35:00;25.3;;;19.1;;
49900;SDS011;35789;48.414;12.768;2023-10-19T11:40:00;25.3;;;19.1;;
49900;SDS011;35789;48.414;12.768;2023-10-19T11:45:00;23.9;;;20.0;;
49900;SDS011;35789;48.414;12.768;2023-10-19T11:50:00;23.9;;;20.0;;
49900;SDS011;35789;48.414;12.768;2023-10-19T11:55:00;23.9;;;20.0;;
49900;SDS011;35789;48.414;12.768;2023-10-19T12:00:00;23.9;;;20.0;;
49900;SDS011;35789;48.414;12.768;2023-10-19T12:05:01;23.9;;;20.0;;
49900;SDS011;35789;48.414;12.768;2023-10-19T12:10:00;23.9;;;20.0;;
49900;SDS011;35789;48.414;12.768;2023-10-19T12:15:00;23.6;;;18.6;;
49900;SDS011;35789;48.414;12.768;2023-10-19T12:20:00;23.6;;;18.6;;
49900;SDS011;35789;48.414;12.768;2023-10-19T12:25:00;23.6;;;18.6;;
49900;SDS011;35789;48.414;12.768;2023-10-19T12:30:00;23.6;;;18.6;;
49900;SDS011;35789;48.414;12.768;2023-10-19T12:35:00;23.6;;;18.6;;
49900;SDS011;35789;48.414;12.768;2023-10-19T12:40:00;23.6;;;18.6;;
49900;SDS011;35789;48.414;12.768;2023-10-19T12:45:00;21.9;;;18.1;;
49900;SDS011;35789;48.414;12.768;2023-10-19T12:50:00;21.9;;;18.1;;
49900;SDS011;35789;48.414;12.768;2023-10-19T12:55:00;21.9;;;18.1;;
49900;SDS011;35789;48.414;12.768;2023-10-19T13:00:00;21.9;;;18.1;;
49900;SDS011;35789;48.414;12.768;2023-10-19T13:05:00;21.9;;;18.1;;
49900;SDS011;35789;48.414;12.768;2023-10-19T13:10:00;21.9;;;18.1;;
49900;SDS011;35789;48.414;12.768;2023-10-19T13:15:00;23.0;;;17.1;;
49900;SDS011;35789;48.414;12.768;2023-10-19T13:20:00;23.0;;;17.1;;
49900;SDS011;35789;48.414;12.768;2023-10-19T13:25:00;23.0;;;17.1;;
49900;SDS011;35789;48.414;12.768;2023-10-19T13:30:00;23.0;;;17.1;;
49900;SDS011;35789;48.414;12.768;2023-10-19T13:35:00;unavailable;;;unavailable;;
49900;SDS011;35789;48.414;12.768;2023-10-19T13:40:00;23.0;;;17.1;;
49900;SDS011;35789;48.414;12.768;2023-10-19T13:45:00;22.7;;;16.4;;
49900;SDS011;35789;48.414;12.768;2023-10-19T13:50:00;22.7;;;16.4;;
49900;SDS011;35789;48.414;12.768;2023-10-19T13:55:01;22.7;;;16.4;;
49900;SDS011;35789;48.414;12.768;2023-10-19T14:00:00;22.7;;;16.4;;
49900;SDS011;35789;48.414;12.768;2023-10-19T14:05:00;22.7;;;16.4;;
49900;SDS011;35789;48.414;12.768;2023-10-19T14:10:00;22.7;;;16.4;;
49900;SDS011;35789;48.414;12.768;2023-10-19T14:15:00;19.4;;;14.8;;
49900;SDS011;35789;48.414;12.768;2023-10-19T14:20:00;unknown;;;unknown;;
49900;SDS011;35789;48.414;12.768;2023-10-19T14:25:00;unknown;;;unknown;;
49900;SDS011;35789;48.414;12.768;2023-10-19T14:30:00;unknown;;;unknown;;
49900;SDS011;35789;48.414;12.768;2023-10-19T14:35:00;unknown;;;unknown;;
49900;SDS011;35789;48.414;12.768;2023-10-19T14:40:00;unknown;;;unknown;;
49900;SDS011;35789;48.414;12.768;2023-10-19T14:45:00;20.9;;;15.7;;
49900;SDS011;35789;48.414;12.768;2023-10-19T14:50:00;20.9;;;15.7;;
49900;SDS011;35789;48.414;12.768;2023-10-19T14:55:00;20.9;;;15.7;;
49900;SDS011;35789;48.414;12.768;2023-10-19T15:00:00;20.9;;;15.7;;
49900;SDS011;35789;48.414;12.768;2023-10-19T15:05:00;20.9;;;15.7;;
49900;SDS011;35789;48.414;12.768;2023-10-19T15:10:02;20.9;;;15.7;;
49900;SDS011;35789;48.414;12.768;2023-10-19T15:15:00;18.4;;;13.5;;
49900;SDS011;35789;48.414;12.768;2023-10-19T15:20:00;18.4;;;13.5;;
49900;SDS011;35789;48.414;12.768;2023-10-19T15:25:00;18.4;;;13.5;;
49900;SDS011;35789;48.414;12.768;2023-10-19T15:30:00;18.4;;;13.5;;
49900;SDS011;35789;48.414;12.768;2023-10-19T15:35:00;18.4;;;13.5;;
49900;SDS011;35789;48.414;12.768;2023-10-19T15:40:00;18.4;;;13.5;;
49900;SDS011;35789;48.414;12.768;2023-10-19T15:45:00;22.0;;;16.2;;
49900;SDS011;35789;48.414;12.768;2023-10-19T15:50:00;22.0;;;16.2;;
49900;SDS011;35789;48.414;12.768;2023-10-19T15:55:00;22.0;;;16.2;;
49900;SDS011;35789;48.414;12.768;2023-10-19T16:00:00;22.0;;;16.2;;
49900;SDS011;35789;48.414;12.768;2023-10-19T16:05:00;22.0;;;16.2;;
49900;SDS011;35789;48.414;12.768;2023-10-19T16:10:00;22.0;;;16.2;;
49900;SDS011;35789;48.414;12.768;2023-10-19T16:15:00;24.0;;;17.8;;
49900;SDS011;35789;48.414;12.768;2023-10-19T16:20:00;24.0;;;17.8;;
49900;SDS011;35789;48.414;12.768;2023-10-19T16:25:00;24.0;;;17.8;;
49900;SDS011;35789;48.414;12.768;2023-10-19T16:30:00;24.0;;;17.8;;
49900;SDS011;35789;48.414;12.768;2023-10-19T16:35:00;24.0;;;17.8;;
49900;SDS011;35789;48.414;12.768;2023-10-19T16:40:00;24.0;;;17.8;;
49900;SDS011;35789;48.414;12.768;2023-10-19T16:45:00;26.5;;;18.5;;
49900;SDS011;35789;48.414;12.768;2023-10-19T16:50:00;26.5;;;18.5;;
49900;SDS011;35789;48.414;12.768;2023-10-19T16:55:00;26.5;;;18.5;;
49900;SDS011;35789;48.414;12.768;2023-10-19T17:00:00;26.5;;;18.5;;
49900;SDS011;35789;48.414;12.768;2023-10-19T17:05:00;26.5;;;18.5;;
49900;SDS011;35789;48.414;12.768;2023-10-19T17:10:00;26.5;;;18.5;;
49900;SDS011;35789;48.414;12.768;2023-10-19T17:15:00;25.5;;;18.1;;
49900;SDS011;35789;48.414;12.768;2023-10-19T17:20:00;25.5;;;18.1;;
49900;SDS011;35789;48.414;12.768;2023-10-19T17:25:00;25.5;;;18.1;;
49900;SDS011;35789;48.414;12.768;2023-10-19T17:30:00;25.5;;;18.1;;
49900;SDS011;35789;48.414;12.768;2023-10-19T17:35:00;25.5;;;18.1;;
49900;SDS011;35789;48.414;12.768;2023-10-19T17:40:01;25.5;;;18.1;;
49900;SDS011;35789;48.414;12.768;2023-10-19T17:45:00;22.8;;;17.9;;
49900;SDS011;35789;48.414;12.768;2023-10-19T17:50:00;22.8;;;17.9;;
49900;SDS011;35789;48.414;12.768;2023-10-19T17:55:00;22.8;;;17.9;;
49900;SDS011;35789;48.414;12.768;2023-10-19T18:00:00;22.8;;;17.9;;
49900;SDS011;35789;48.414;12.768;2023-10-19T18:05:00;22.8;;;17.9;;
49900;SDS011;35789;48.414;12.768;2023-10-19T18:10:00;22.8;;;17.9;;
49900;SDS011;35789;48.414;12.768;2023-10-19T18:15:00;24.8;;;18.2;;
49900;SDS011;35789;48.414;12.768;2023-10-19T18:20:00;24.8;;;18.2;;
49900;SDS011;35789;48.414;12.768;2023-10-19T18:25:00;24.8;;;18.2;;
49900;SDS011;35789;48.414;12.768;2023-10-19T18:30:00;24.8;;;18.2;;
49900;SDS011;35789;48.414;12.768;2023-10-19T18:35:00;24.8;;;18.2;;
49900;SDS011;35789;48.414;12.768;2023-10-19T18:40:00;24.8;;;18.2;;
49900;SDS011;35789;48.414;12.768;2023-10-19T18:45:01;29.8;;;21.2;;
49900;SDS011;35789;48.414;12.768;2023-10-19T18:50:00;29.8;;;21.2;;
49900;SDS011;35789;48.414;12.768;2023-10-19T18:55:00;29.8;;;21.2;;
49900;SDS011;35789;48.414;12.768;2023-10-19T19:00:00;29.8;;;21.2;;
49900;SDS011;35789;48.414;12.768;2023-10-19T19:05:00;29.8;;;21.2;;
49900;SDS011;35789;48.414;12.768;2023-10-19T19:10:00;29.8;;;21.2;;
49900;SDS011;35789;48.414;12.768;2023-10-19T19:15:00;25.0;;;18.9;;
49900;SDS011;35789;48.414;12.768;2023-10-19T19:20:00;25.0;;;18.9;;
49900;SDS011;35789;48.414;12.768;2023-10-19T19:25:00;25.0;;;18.9;;
49900;SDS011;35789;48.414;12.768;2023-10-19T19:30:00;25.0;;;18.9;;
49900;SDS011;35789;48.414;12.768;2023-10-19T19:35:00;25.0;;;18.9;;
49900;SDS011;35789;48.414;12.768;2023-10-19T19:40:00;25.0;;;18.9;;
49900;SDS011;35789;48.414;12.768;2023-10-19T19:45:00;29.8;;;19.3;;
49900;SDS011;35789;48.414;12.768;2023-10-19T19:50:00;29.8;;;19.3;;
49900;SDS011;35789;48.414;12.768;2023-10-19T19:55:00;29.8;;;19.3;;
49900;SDS011;35789;48.414;12.768;2023-10-19T20:00:01;29.8;;;19.3;;
49900;SDS011;35789;48.414;12.768;2023-10-19T20:05:00;29.8;;;19.3;;
49900;SDS011;35789;48.414;12.768;2023-10-19T20:10:00;29.8;;;19.3;;
49900;SDS011;35789;48.414;12.768;2023-10-19T20:15:00;40.8;;;28.1;;
49900;SDS011;35789;48.414;12.768;2023-10-19T20:20:00;40.8;;;28.1;;
49900;SDS011;35789;48.414;12.768;2023-10-19T20:25:00;40.8;;;28.1;;
49900;SDS011;35789;48.414;12.768;2023-10-19T20:30:00;40.8;;;28.1;;
49900;SDS011;35789;48.414;12.768;2023-10-19T20:35:00;40.8;;;28.1;;
49900;SDS011;35789;48.414;12.768;2023-10-19T20:40:00;40.8;;;28.1;;
49900;SDS011;35789;48.414;12.768;2023-10-19T20:45:00;31.2;;;23.9;;
49900;SDS011;35789;48.414;12.768;2023-10-19T20:50:00;31.2;;;23.9;;
49900;SDS011;35789;48.414;12.768;2023-10-19T20:55:00;31.2;;;23.9;;
49900;SDS011;35789;48.414;12.768;2023-10-19T21:00:00;31.2;;;23.9;;
49900;SDS011;35789;48.414;12.768;2023-10-19T21:05:00;31.2;;;23.9;;
49900;SDS011;35789;48.414;12.768;2023-10-19T21:10:00;31.2;;;23.9;;
49900;SDS011;35789;48.414;12.768;2023-10-19T21:15:00;30.6;;;22.7;;
49900;SDS011;35789;48.414;12.768;2023-10-19T21:20:00;30.6;;;22.7;;
49900;SDS011;35789;48.414;12.768;2023-10-19T21:25:00;30.6;;;22.7;;
49900;SDS011;35789;48.414;12.768;2023-10-19T21:30:00;30.6;;;22.7;;
49900;SDS011;35789;48.414;12.768;2023-10-19T21:35:00;30.6;;;22.7;;
49900;SDS011;35789;48.414;12.768;2023-10-19T21:40:00;30.6;;;22.7;;
49900;SDS011;35789;48.414;12.768;2023-10-19T21:45:00;36.0;;;24.1;;
49900;SDS011;35789;48.414;12.768;2023-10-19T21:50:00;36.0;;;24.1;;
49900;SDS011;35789;48.414;12.768;2023-10-19T21:55:00;36.0;;;24.1;;
49900;SDS011;35789;48.414;12.768;2023-10-19T22:00:00;36.0;;;24.1;;
49900;SDS011;35789;48.414;12.768;2023-10-19T22:05:00;36.0;;;24.1;;
49900;SDS011;35789;48.414;12.768;2023-10-19T22:10:00;36.0;;;24.1;;
49900;SDS011;35789;48.414;12.768;2023-10-19T22:15:00;32.6;;;22.7;;
49900;SDS011;35789;48.414;12.768;2023-10-19T22:20:00;32.6;;;22.7;;
49900;SDS011;35789;48.414;12.768;2023-10-19T22:25:00;32.6;;;22.7;;
49900;SDS011;35789;48.414;12.768;2023-10-19T22:30:00;32.6;;;22.7;;
49900;SDS011;35789;48.414;12.768;2023-10-19T22:35:00;32.6;;;22.7;;
49900;SDS011;35789;48.414;12.768;2023-10-19T22:40:00;32.6;;;29.3;;
49900;SDS011;35789;48.414;12.768;2023-10-19T22:45:00;41.9;;;29.3;;
49900;SDS011;35789;48.414;12.768;2023-10-19T22:50:00;41.9;;;29.3;;
49900;SDS011;35789;48.414;12.768;2023-10-19T22:55:00;41.9;;;29.3;;
49900;SDS011;35789;48.414;12.768;2023-10-19T23:00:00;41.9;;;29.3;;
49900;SDS011;35789;48.414;12.768;2023-10-19T23:05:00;41.9;;;29.3;;
49900;SDS011;35789;48.414;12.768;2023-10-19T23:10:00;46.4;;;31.5;;
49900;SDS011;35789;48.414;12.768;2023-10-19T23:15:01;46.4;;;31.5;;
49900;SDS011;35789;48.414;12.768;2023-10-19T23:20:00;46.4;;;31.5;;
49900;SDS011;35789;48.414;12.768;2023-10-19T23:25:00;46.4;;;31.5;;
49900;SDS011;35789;48.414;12.768;2023-10-19T23:30:00;46.4;;;31.5;;
49900;SDS011;35789;48.414;12.768;2023-10-19T23:35:00;46.4;;;31.5;;
49900;SDS011;35789;48.414;12.768;2023-10-19T23:40:00;48.6;;;32.5;;
49900;SDS011;35789;48.414;12.768;2023-10-19T23:45:00;48.6;;;32.5;;
49900;SDS011;35789;48.414;12.768;2023-10-19T23:50:00;48.6;;;32.5;;
49900;SDS011;35789;48.414;12.768;2023-10-19T23:55:00;48.6;;;32.5;;
